Terminal Aerodrome Forecast
Issued by NWS

Home | Current Version | Previous Version | Graphics & Text | Print | Product List | Glossary On
Versions: 1 2 3 4 5 6 7 8 9 10 11 12 13 14 15 16 17 18
000
FTUS43 KBIS 290500
TAFDIK
TAF
KDIK 290520Z 2906/3006 28022G32KT P6SM SCT100
     FM290700 31028G38KT 5SM -SHRA BKN030
     FM291100 31024G32KT P6SM BKN060
     FM292200 29016G22KT P6SM SCT080=

USA.gov is the U.S. government's official web portal to all federal, state and local government web resources and services.